sensor_id;sensor_type;location;lat;lon;timestamp;pressure;altitude;pressure_sealevel;temperature;humidity
35129;BME280;21301;43.626;10.580;2024-01-07T00:01:23;99411.50;;;11.39;84.82
35129;BME280;21301;43.626;10.580;2024-01-07T00:03:48;99403.84;;;11.46;85.25
35129;BME280;21301;43.626;10.580;2024-01-07T00:06:14;99407.44;;;11.71;85.10
35129;BME280;21301;43.626;10.580;2024-01-07T00:08:40;99412.00;;;11.87;85.17
35129;BME280;21301;43.626;10.580;2024-01-07T00:11:05;99412.03;;;11.95;84.42
35129;BME280;21301;43.626;10.580;2024-01-07T00:13:31;99409.91;;;11.99;84.59
35129;BME280;21301;43.626;10.580;2024-01-07T00:15:56;99411.38;;;11.93;83.89
35129;BME280;21301;43.626;10.580;2024-01-07T00:18:23;99407.16;;;11.82;84.08
35129;BME280;21301;43.626;10.580;2024-01-07T00:20:50;99411.63;;;11.82;84.58
35129;BME280;21301;43.626;10.580;2024-01-07T00:23:16;99410.50;;;11.58;84.49
35129;BME280;21301;43.626;10.580;2024-01-07T00:25:41;99406.88;;;11.33;85.40
35129;BME280;21301;43.626;10.580;2024-01-07T00:28:07;99413.91;;;11.33;85.46
35129;BME280;21301;43.626;10.580;2024-01-07T00:30:32;99402.63;;;11.14;85.83
35129;BME280;21301;43.626;10.580;2024-01-07T00:32:59;99410.22;;;10.99;86.12
35129;BME280;21301;43.626;10.580;2024-01-07T00:35:26;99405.88;;;10.90;85.67
35129;BME280;21301;43.626;10.580;2024-01-07T00:37:51;99410.09;;;10.83;86.43
35129;BME280;21301;43.626;10.580;2024-01-07T00:40:17;99416.31;;;11.00;86.74
35129;BME280;21301;43.626;10.580;2024-01-07T00:42:43;99409.16;;;11.10;86.50
35129;BME280;21301;43.626;10.580;2024-01-07T00:45:09;99411.28;;;11.06;86.43
35129;BME280;21301;43.626;10.580;2024-01-07T00:47:35;99417.44;;;10.97;86.17
35129;BME280;21301;43.626;10.580;2024-01-07T00:50:00;99415.25;;;10.93;86.17
35129;BME280;21301;43.626;10.580;2024-01-07T00:52:26;99415.63;;;10.98;86.62
35129;BME280;21301;43.626;10.580;2024-01-07T00:54:52;99409.75;;;11.04;86.28
35129;BME280;21301;43.626;10.580;2024-01-07T00:57:17;99411.81;;;10.92;87.03
35129;BME280;21301;43.626;10.580;2024-01-07T00:59:43;99413.59;;;10.74;86.97
35129;BME280;21301;43.626;10.580;2024-01-07T01:02:09;99422.69;;;10.79;87.25
35129;BME280;21301;43.626;10.580;2024-01-07T01:04:38;99415.16;;;10.84;86.54
35129;BME280;21301;43.626;10.580;2024-01-07T01:07:05;99415.72;;;10.88;87.30
35129;BME280;21301;43.626;10.580;2024-01-07T01:09:30;99423.88;;;10.67;87.11
35129;BME280;21301;43.626;10.580;2024-01-07T01:11:56;99421.72;;;10.80;87.32
35129;BME280;21301;43.626;10.580;2024-01-07T01:14:21;99422.47;;;10.91;87.13
35129;BME280;21301;43.626;10.580;2024-01-07T01:16:48;99415.91;;;11.13;87.25
35129;BME280;21301;43.626;10.580;2024-01-07T01:19:14;99416.16;;;11.19;87.20
35129;BME280;21301;43.626;10.580;2024-01-07T01:21:39;99417.69;;;11.30;86.35
35129;BME280;21301;43.626;10.580;2024-01-07T01:24:05;99420.38;;;11.12;86.26
35129;BME280;21301;43.626;10.580;2024-01-07T01:26:33;99424.50;;;11.15;85.98
35129;BME280;21301;43.626;10.580;2024-01-07T01:28:59;99437.88;;;11.03;85.77
35129;BME280;21301;43.626;10.580;2024-01-07T01:31:24;99422.84;;;10.78;86.48
35129;BME280;21301;43.626;10.580;2024-01-07T01:33:50;99435.31;;;10.76;86.28
35129;BME280;21301;43.626;10.580;2024-01-07T01:36:16;99432.69;;;10.94;86.62
35129;BME280;21301;43.626;10.580;2024-01-07T01:38:41;99431.78;;;11.21;86.67
35129;BME280;21301;43.626;10.580;2024-01-07T01:41:07;99430.09;;;11.38;86.24
35129;BME280;21301;43.626;10.580;2024-01-07T01:43:35;99420.97;;;11.50;86.17
35129;BME280;21301;43.626;10.580;2024-01-07T01:46:02;99428.25;;;11.56;85.47
35129;BME280;21301;43.626;10.580;2024-01-07T01:48:29;99422.88;;;11.66;84.77
35129;BME280;21301;43.626;10.580;2024-01-07T01:50:55;99427.41;;;11.56;85.10
35129;BME280;21301;43.626;10.580;2024-01-07T01:53:26;99428.59;;;11.61;84.67
35129;BME280;21301;43.626;10.580;2024-01-07T01:55:55;99431.50;;;11.50;84.63
35129;BME280;21301;43.626;10.580;2024-01-07T01:58:23;99431.16;;;11.27;84.78
35129;BME280;21301;43.626;10.580;2024-01-07T02:00:50;99435.78;;;11.07;85.28
35129;BME280;21301;43.626;10.580;2024-01-07T02:03:17;99432.16;;;11.26;85.38
35129;BME280;21301;43.626;10.580;2024-01-07T02:05:43;99427.81;;;11.17;84.60
35129;BME280;21301;43.626;10.580;2024-01-07T02:08:17;99430.25;;;11.18;84.77
35129;BME280;21301;43.626;10.580;2024-01-07T02:10:48;99429.59;;;11.16;84.65
35129;BME280;21301;43.626;10.580;2024-01-07T02:13:13;99431.09;;;11.19;84.28
35129;BME280;21301;43.626;10.580;2024-01-07T02:15:50;99431.19;;;11.09;84.02
35129;BME280;21301;43.626;10.580;2024-01-07T02:18:16;99436.38;;;11.19;84.60
35129;BME280;21301;43.626;10.580;2024-01-07T02:20:44;99437.69;;;11.23;84.08
35129;BME280;21301;43.626;10.580;2024-01-07T02:23:09;99434.00;;;11.34;84.16
35129;BME280;21301;43.626;10.580;2024-01-07T02:25:36;99438.97;;;11.37;84.16
35129;BME280;21301;43.626;10.580;2024-01-07T02:28:02;99441.00;;;11.43;83.97
35129;BME280;21301;43.626;10.580;2024-01-07T02:30:28;99441.69;;;11.45;83.84
35129;BME280;21301;43.626;10.580;2024-01-07T02:32:54;99434.69;;;11.36;84.27
35129;BME280;21301;43.626;10.580;2024-01-07T02:35:20;99434.00;;;11.34;83.73
35129;BME280;21301;43.626;10.580;2024-01-07T02:37:45;99432.97;;;11.26;83.69
35129;BME280;21301;43.626;10.580;2024-01-07T02:40:11;99432.75;;;11.20;84.01
35129;BME280;21301;43.626;10.580;2024-01-07T02:42:37;99434.56;;;11.19;83.72
35129;BME280;21301;43.626;10.580;2024-01-07T02:45:03;99436.97;;;11.13;83.67
35129;BME280;21301;43.626;10.580;2024-01-07T02:47:28;99438.25;;;11.08;82.63
35129;BME280;21301;43.626;10.580;2024-01-07T02:49:55;99438.94;;;10.93;83.49
35129;BME280;21301;43.626;10.580;2024-01-07T02:52:20;99440.56;;;10.94;82.98
35129;BME280;21301;43.626;10.580;2024-01-07T02:54:46;99440.44;;;10.95;83.47
35129;BME280;21301;43.626;10.580;2024-01-07T02:57:11;99439.69;;;10.85;83.49
35129;BME280;21301;43.626;10.580;2024-01-07T02:59:38;99439.38;;;10.88;83.31
35129;BME280;21301;43.626;10.580;2024-01-07T03:02:06;99442.53;;;10.92;83.30
35129;BME280;21301;43.626;10.580;2024-01-07T03:04:32;99434.34;;;10.95;83.78
35129;BME280;21301;43.626;10.580;2024-01-07T03:06:58;99443.50;;;10.91;83.20
35129;BME280;21301;43.626;10.580;2024-01-07T03:09:24;99440.97;;;10.81;83.57
35129;BME280;21301;43.626;10.580;2024-01-07T03:11:50;99441.25;;;10.78;83.69
35129;BME280;21301;43.626;10.580;2024-01-07T03:14:16;99437.41;;;10.72;83.35
35129;BME280;21301;43.626;10.580;2024-01-07T03:16:45;99440.28;;;10.61;83.31
35129;BME280;21301;43.626;10.580;2024-01-07T03:19:12;99441.16;;;10.52;83.15
35129;BME280;21301;43.626;10.580;2024-01-07T03:21:39;99439.25;;;10.44;83.43
35129;BME280;21301;43.626;10.580;2024-01-07T03:24:05;99434.06;;;10.34;83.41
35129;BME280;21301;43.626;10.580;2024-01-07T03:26:31;99428.53;;;10.28;83.46
35129;BME280;21301;43.626;10.580;2024-01-07T03:28:58;99436.81;;;10.33;84.09
35129;BME280;21301;43.626;10.580;2024-01-07T03:31:28;99433.50;;;10.31;83.33
35129;BME280;21301;43.626;10.580;2024-01-07T03:33:53;99430.59;;;10.24;83.42
35129;BME280;21301;43.626;10.580;2024-01-07T03:36:19;99428.38;;;10.29;83.38
35129;BME280;21301;43.626;10.580;2024-01-07T03:38:46;99434.50;;;10.30;83.18
35129;BME280;21301;43.626;10.580;2024-01-07T03:41:18;99439.88;;;10.28;83.61
35129;BME280;21301;43.626;10.580;2024-01-07T03:43:45;99441.25;;;10.32;83.58
35129;BME280;21301;43.626;10.580;2024-01-07T03:46:11;99439.97;;;10.36;83.29
35129;BME280;21301;43.626;10.580;2024-01-07T03:48:37;99443.16;;;10.40;82.79
35129;BME280;21301;43.626;10.580;2024-01-07T03:51:04;99447.97;;;10.44;82.76
35129;BME280;21301;43.626;10.580;2024-01-07T03:53:31;99440.31;;;10.51;83.07
35129;BME280;21301;43.626;10.580;2024-01-07T03:55:57;99438.91;;;10.57;83.46
35129;BME280;21301;43.626;10.580;2024-01-07T03:58:23;99436.41;;;10.55;83.08
35129;BME280;21301;43.626;10.580;2024-01-07T04:00:48;99440.84;;;10.27;82.83
35129;BME280;21301;43.626;10.580;2024-01-07T04:03:14;99437.50;;;10.35;83.55
35129;BME280;21301;43.626;10.580;2024-01-07T04:05:40;99443.63;;;10.53;83.20
35129;BME280;21301;43.626;10.580;2024-01-07T04:08:05;99435.84;;;10.61;83.86
35129;BME280;21301;43.626;10.580;2024-01-07T04:10:31;99443.78;;;10.70;83.49
35129;BME280;21301;43.626;10.580;2024-01-07T04:12:57;99444.53;;;10.80;83.27
35129;BME280;21301;43.626;10.580;2024-01-07T04:15:23;99439.59;;;10.77;82.88
35129;BME280;21301;43.626;10.580;2024-01-07T04:17:48;99445.53;;;10.61;83.20
35129;BME280;21301;43.626;10.580;2024-01-07T04:20:14;99449.81;;;10.34;83.54
35129;BME280;21301;43.626;10.580;2024-01-07T04:22:40;99448.03;;;10.35;83.47
35129;BME280;21301;43.626;10.580;2024-01-07T04:25:06;99450.59;;;10.44;83.75
35129;BME280;21301;43.626;10.580;2024-01-07T04:27:34;99445.84;;;10.20;83.74
35129;BME280;21301;43.626;10.580;2024-01-07T04:30:01;99457.22;;;10.49;83.57
35129;BME280;21301;43.626;10.580;2024-01-07T04:32:26;99456.94;;;10.70;84.08
35129;BME280;21301;43.626;10.580;2024-01-07T04:34:52;99458.25;;;10.83;84.32
35129;BME280;21301;43.626;10.580;2024-01-07T04:37:18;99456.97;;;10.87;82.65
35129;BME280;21301;43.626;10.580;2024-01-07T04:39:43;99459.09;;;10.56;83.31
35129;BME280;21301;43.626;10.580;2024-01-07T04:42:09;99457.31;;;10.75;82.81
35129;BME280;21301;43.626;10.580;2024-01-07T04:44:35;99462.50;;;10.66;83.20
35129;BME280;21301;43.626;10.580;2024-01-07T04:47:00;99462.31;;;10.50;82.71
35129;BME280;21301;43.626;10.580;2024-01-07T04:49:26;99465.56;;;10.62;83.60
35129;BME280;21301;43.626;10.580;2024-01-07T04:51:52;99464.50;;;10.82;83.14
35129;BME280;21301;43.626;10.580;2024-01-07T04:54:18;99464.69;;;10.89;82.68
35129;BME280;21301;43.626;10.580;2024-01-07T04:56:44;99466.81;;;10.85;82.67
35129;BME280;21301;43.626;10.580;2024-01-07T04:59:10;99470.84;;;10.80;82.95
35129;BME280;21301;43.626;10.580;2024-01-07T05:01:36;99476.66;;;10.83;81.95
35129;BME280;21301;43.626;10.580;2024-01-07T05:04:03;99471.97;;;10.77;82.57
35129;BME280;21301;43.626;10.580;2024-01-07T05:06:28;99473.56;;;10.88;82.03
35129;BME280;21301;43.626;10.580;2024-01-07T05:08:55;99469.25;;;10.69;81.65
35129;BME280;21301;43.626;10.580;2024-01-07T05:11:20;99468.81;;;10.74;81.83
35129;BME280;21301;43.626;10.580;2024-01-07T05:13:46;99477.16;;;10.69;82.36
35129;BME280;21301;43.626;10.580;2024-01-07T05:16:21;99478.09;;;10.50;81.50
35129;BME280;21301;43.626;10.580;2024-01-07T05:18:47;99478.53;;;10.45;82.12
35129;BME280;21301;43.626;10.580;2024-01-07T05:21:15;99485.88;;;10.42;82.42
35129;BME280;21301;43.626;10.580;2024-01-07T05:23:41;99484.16;;;10.51;82.26
35129;BME280;21301;43.626;10.580;2024-01-07T05:26:08;99486.09;;;10.58;81.67
35129;BME280;21301;43.626;10.580;2024-01-07T05:28:34;99487.63;;;10.51;82.46
35129;BME280;21301;43.626;10.580;2024-01-07T05:30:59;99491.78;;;10.54;82.03
35129;BME280;21301;43.626;10.580;2024-01-07T05:33:25;99498.38;;;9.73;82.72
35129;BME280;21301;43.626;10.580;2024-01-07T05:35:50;99496.06;;;8.92;82.96
35129;BME280;21301;43.626;10.580;2024-01-07T05:38:16;99499.19;;;8.67;83.79
35129;BME280;21301;43.626;10.580;2024-01-07T05:40:41;99505.13;;;8.79;84.28
35129;BME280;21301;43.626;10.580;2024-01-07T05:43:07;99500.84;;;8.78;84.43
35129;BME280;21301;43.626;10.580;2024-01-07T05:45:33;99494.66;;;8.88;84.76
35129;BME280;21301;43.626;10.580;2024-01-07T05:47:58;99490.41;;;9.26;85.09
35129;BME280;21301;43.626;10.580;2024-01-07T05:50:24;99496.06;;;9.51;84.80
35129;BME280;21301;43.626;10.580;2024-01-07T05:52:51;99493.44;;;9.60;84.25
35129;BME280;21301;43.626;10.580;2024-01-07T05:55:18;99498.66;;;9.70;83.69
35129;BME280;21301;43.626;10.580;2024-01-07T05:57:44;99502.34;;;9.87;83.60
35129;BME280;21301;43.626;10.580;2024-01-07T06:00:10;99495.03;;;9.81;83.36
35129;BME280;21301;43.626;10.580;2024-01-07T06:02:39;99498.31;;;9.93;83.78
35129;BME280;21301;43.626;10.580;2024-01-07T06:05:05;99504.78;;;10.08;83.06
35129;BME280;21301;43.626;10.580;2024-01-07T06:07:31;99502.94;;;10.18;82.91
35129;BME280;21301;43.626;10.580;2024-01-07T06:09:57;99497.56;;;10.20;82.38
35129;BME280;21301;43.626;10.580;2024-01-07T06:12:23;99505.44;;;10.20;82.26
35129;BME280;21301;43.626;10.580;2024-01-07T06:14:51;99504.59;;;10.29;82.48
35129;BME280;21301;43.626;10.580;2024-01-07T06:17:16;99495.44;;;10.33;82.84
35129;BME280;21301;43.626;10.580;2024-01-07T06:19:42;99505.91;;;10.43;82.55
35129;BME280;21301;43.626;10.580;2024-01-07T06:22:07;99503.84;;;10.47;81.94
35129;BME280;21301;43.626;10.580;2024-01-07T06:24:33;99502.44;;;10.52;82.30
35129;BME280;21301;43.626;10.580;2024-01-07T06:26:58;99508.38;;;10.54;82.42
35129;BME280;21301;43.626;10.580;2024-01-07T06:29:24;99512.88;;;10.62;82.02
35129;BME280;21301;43.626;10.580;2024-01-07T06:31:52;99507.50;;;10.63;81.88
35129;BME280;21301;43.626;10.580;2024-01-07T06:34:18;99513.56;;;10.64;81.99
35129;BME280;21301;43.626;10.580;2024-01-07T06:36:44;99518.53;;;10.67;82.02
35129;BME280;21301;43.626;10.580;2024-01-07T06:39:09;99517.41;;;10.70;82.04
35129;BME280;21301;43.626;10.580;2024-01-07T06:41:35;99510.94;;;10.64;81.69
35129;BME280;21301;43.626;10.580;2024-01-07T06:44:02;99519.56;;;10.56;81.74
35129;BME280;21301;43.626;10.580;2024-01-07T06:46:28;99524.19;;;10.44;81.40
35129;BME280;21301;43.626;10.580;2024-01-07T06:48:53;99523.06;;;10.47;81.81
35129;BME280;21301;43.626;10.580;2024-01-07T06:51:19;99524.47;;;10.41;81.32
35129;BME280;21301;43.626;10.580;2024-01-07T06:53:45;99530.88;;;10.29;81.44
35129;BME280;21301;43.626;10.580;2024-01-07T06:56:14;99535.56;;;10.26;81.19
35129;BME280;21301;43.626;10.580;2024-01-07T06:58:40;99538.44;;;10.42;81.87
35129;BME280;21301;43.626;10.580;2024-01-07T07:01:09;99536.06;;;10.39;81.69
35129;BME280;21301;43.626;10.580;2024-01-07T07:03:35;99550.31;;;10.46;81.48
35129;BME280;21301;43.626;10.580;2024-01-07T07:06:00;99557.31;;;10.55;81.47
35129;BME280;21301;43.626;10.580;2024-01-07T07:08:26;99548.97;;;10.70;80.87
35129;BME280;21301;43.626;10.580;2024-01-07T07:10:52;99558.84;;;10.58;81.60
35129;BME280;21301;43.626;10.580;2024-01-07T07:13:17;99563.66;;;10.62;81.38
35129;BME280;21301;43.626;10.580;2024-01-07T07:15:43;99568.91;;;10.62;81.28
35129;BME280;21301;43.626;10.580;2024-01-07T07:18:09;99567.34;;;10.70;81.38
35129;BME280;21301;43.626;10.580;2024-01-07T07:20:34;99572.06;;;10.76;81.06
35129;BME280;21301;43.626;10.580;2024-01-07T07:23:00;99571.38;;;10.74;80.68
35129;BME280;21301;43.626;10.580;2024-01-07T07:25:26;99576.06;;;10.70;80.78
35129;BME280;21301;43.626;10.580;2024-01-07T07:27:52;99578.81;;;10.78;81.27
35129;BME280;21301;43.626;10.580;2024-01-07T07:30:18;99585.88;;;10.78;81.20
35129;BME280;21301;43.626;10.580;2024-01-07T07:32:43;99585.59;;;10.43;81.02
35129;BME280;21301;43.626;10.580;2024-01-07T07:35:09;99586.50;;;9.95;81.11
35129;BME280;21301;43.626;10.580;2024-01-07T07:37:35;99586.72;;;10.21;81.46
35129;BME280;21301;43.626;10.580;2024-01-07T07:40:02;99592.16;;;10.10;81.06
35129;BME280;21301;43.626;10.580;2024-01-07T07:42:28;99596.19;;;9.75;81.52
35129;BME280;21301;43.626;10.580;2024-01-07T07:44:53;99599.81;;;9.65;81.65
35129;BME280;21301;43.626;10.580;2024-01-07T07:47:20;99604.63;;;9.69;81.60
35129;BME280;21301;43.626;10.580;2024-01-07T07:49:46;99603.66;;;9.70;82.01
35129;BME280;21301;43.626;10.580;2024-01-07T07:52:11;99593.56;;;9.85;81.98
35129;BME280;21301;43.626;10.580;2024-01-07T07:54:39;99590.66;;;9.59;82.14
35129;BME280;21301;43.626;10.580;2024-01-07T07:57:05;99598.81;;;9.66;82.10
35129;BME280;21301;43.626;10.580;2024-01-07T07:59:30;99598.13;;;9.73;81.63
35129;BME280;21301;43.626;10.580;2024-01-07T08:01:56;99606.56;;;9.87;81.66
35129;BME280;21301;43.626;10.580;2024-01-07T08:04:24;99609.03;;;9.88;81.63
35129;BME280;21301;43.626;10.580;2024-01-07T08:06:52;99604.63;;;9.79;81.73
35129;BME280;21301;43.626;10.580;2024-01-07T08:09:17;99610.00;;;10.07;81.70
35129;BME280;21301;43.626;10.580;2024-01-07T08:11:44;99601.34;;;10.43;81.52
35129;BME280;21301;43.626;10.580;2024-01-07T08:14:09;99602.69;;;10.57;80.34
35129;BME280;21301;43.626;10.580;2024-01-07T08:16:35;99605.94;;;10.79;80.22
35129;BME280;21301;43.626;10.580;2024-01-07T08:19:00;99595.38;;;10.88;80.05
35129;BME280;21301;43.626;10.580;2024-01-07T08:21:26;99600.81;;;11.05;80.00
35129;BME280;21301;43.626;10.580;2024-01-07T08:23:53;99611.16;;;11.16;79.23
35129;BME280;21301;43.626;10.580;2024-01-07T08:26:19;99607.03;;;11.14;78.90
35129;BME280;21301;43.626;10.580;2024-01-07T08:28:45;99604.81;;;11.09;78.96
35129;BME280;21301;43.626;10.580;2024-01-07T08:31:11;99606.09;;;11.23;78.95
35129;BME280;21301;43.626;10.580;2024-01-07T08:33:36;99610.34;;;11.34;78.49
35129;BME280;21301;43.626;10.580;2024-01-07T08:36:02;99616.31;;;11.36;79.04
35129;BME280;21301;43.626;10.580;2024-01-07T08:38:28;99619.75;;;11.36;78.06
35129;BME280;21301;43.626;10.580;2024-01-07T08:40:54;99626.38;;;11.40;77.97
35129;BME280;21301;43.626;10.580;2024-01-07T08:43:20;99636.03;;;10.94;78.38
35129;BME280;21301;43.626;10.580;2024-01-07T08:45:46;99635.28;;;11.12;78.58
35129;BME280;21301;43.626;10.580;2024-01-07T08:48:12;99636.28;;;11.01;78.41
35129;BME280;21301;43.626;10.580;2024-01-07T08:50:40;99646.75;;;10.83;78.55
35129;BME280;21301;43.626;10.580;2024-01-07T08:53:07;99638.00;;;11.20;78.54
35129;BME280;21301;43.626;10.580;2024-01-07T08:55:34;99638.19;;;11.36;78.52
35129;BME280;21301;43.626;10.580;2024-01-07T08:58:01;99634.50;;;11.47;77.98
35129;BME280;21301;43.626;10.580;2024-01-07T09:00:26;99640.38;;;11.41;77.59
35129;BME280;21301;43.626;10.580;2024-01-07T09:02:57;99647.34;;;11.04;77.90
35129;BME280;21301;43.626;10.580;2024-01-07T09:05:23;99655.66;;;11.27;77.82
35129;BME280;21301;43.626;10.580;2024-01-07T09:07:50;99647.44;;;11.13;76.98
35129;BME280;21301;43.626;10.580;2024-01-07T09:10:15;99646.06;;;11.36;77.83
35129;BME280;21301;43.626;10.580;2024-01-07T09:12:41;99649.31;;;11.66;77.26
35129;BME280;21301;43.626;10.580;2024-01-07T09:15:07;99648.81;;;12.16;78.16
35129;BME280;21301;43.626;10.580;2024-01-07T09:17:38;99646.00;;;13.38;78.53
35129;BME280;21301;43.626;10.580;2024-01-07T09:20:04;99647.25;;;13.85;78.65
35129;BME280;21301;43.626;10.580;2024-01-07T09:22:34;99646.59;;;14.07;78.09
35129;BME280;21301;43.626;10.580;2024-01-07T09:25:04;99646.91;;;14.37;78.35
35129;BME280;21301;43.626;10.580;2024-01-07T09:27:30;99653.66;;;14.64;78.07
35129;BME280;21301;43.626;10.580;2024-01-07T09:29:56;99656.78;;;14.84;77.96
35129;BME280;21301;43.626;10.580;2024-01-07T09:32:22;99651.75;;;14.98;77.23
35129;BME280;21301;43.626;10.580;2024-01-07T09:34:47;99656.16;;;15.13;77.40
35129;BME280;21301;43.626;10.580;2024-01-07T09:37:13;99657.84;;;14.98;77.18
35129;BME280;21301;43.626;10.580;2024-01-07T09:39:42;99660.84;;;15.03;77.52
35129;BME280;21301;43.626;10.580;2024-01-07T09:42:14;99660.81;;;15.11;77.42
35129;BME280;21301;43.626;10.580;2024-01-07T09:44:41;99652.19;;;15.18;77.40
35129;BME280;21301;43.626;10.580;2024-01-07T09:47:10;99659.00;;;14.15;76.00
35129;BME280;21301;43.626;10.580;2024-01-07T09:49:37;99664.59;;;14.61;76.85
35129;BME280;21301;43.626;10.580;2024-01-07T09:52:04;99667.81;;;14.88;76.31
35129;BME280;21301;43.626;10.580;2024-01-07T09:54:30;99668.38;;;15.15;75.42
35129;BME280;21301;43.626;10.580;2024-01-07T09:57:04;99667.41;;;14.27;73.36
35129;BME280;21301;43.626;10.580;2024-01-07T09:59:34;99665.09;;;14.16;74.40
35129;BME280;21301;43.626;10.580;2024-01-07T10:02:00;99668.59;;;12.64;74.40
35129;BME280;21301;43.626;10.580;2024-01-07T10:04:26;99680.97;;;10.73;76.15
35129;BME280;21301;43.626;10.580;2024-01-07T10:06:58;99679.50;;;9.93;77.18
35129;BME280;21301;43.626;10.580;2024-01-07T10:09:30;99679.34;;;9.46;78.15
35129;BME280;21301;43.626;10.580;2024-01-07T10:11:55;99676.28;;;9.31;78.91
35129;BME280;21301;43.626;10.580;2024-01-07T10:14:21;99685.09;;;9.39;78.70
35129;BME280;21301;43.626;10.580;2024-01-07T10:16:50;99682.16;;;9.23;78.33
35129;BME280;21301;43.626;10.580;2024-01-07T10:19:23;99679.47;;;9.04;78.77
35129;BME280;21301;43.626;10.580;2024-01-07T10:22:03;99686.44;;;8.84;79.51
35129;BME280;21301;43.626;10.580;2024-01-07T10:24:40;99687.00;;;8.87;79.56
35129;BME280;21301;43.626;10.580;2024-01-07T10:27:07;99684.00;;;9.42;78.15
35129;BME280;21301;43.626;10.580;2024-01-07T10:29:33;99676.31;;;9.00;79.49
35129;BME280;21301;43.626;10.580;2024-01-07T10:32:00;99677.50;;;8.96;79.89
35129;BME280;21301;43.626;10.580;2024-01-07T10:34:34;99678.88;;;8.90;80.57
35129;BME280;21301;43.626;10.580;2024-01-07T10:37:02;99678.53;;;9.65;81.71
35129;BME280;21301;43.626;10.580;2024-01-07T10:39:28;99675.38;;;10.10;80.18
35129;BME280;21301;43.626;10.580;2024-01-07T10:41:55;99678.00;;;10.10;79.07
35129;BME280;21301;43.626;10.580;2024-01-07T10:44:25;99673.44;;;10.31;78.84
35129;BME280;21301;43.626;10.580;2024-01-07T10:46:53;99669.63;;;10.63;78.15
35129;BME280;21301;43.626;10.580;2024-01-07T10:49:26;99680.50;;;10.87;78.18
35129;BME280;21301;43.626;10.580;2024-01-07T10:52:04;99673.72;;;11.22;77.89
35129;BME280;21301;43.626;10.580;2024-01-07T10:54:31;99674.72;;;11.39;77.33
35129;BME280;21301;43.626;10.580;2024-01-07T10:57:12;99678.28;;;11.20;76.91
35129;BME280;21301;43.626;10.580;2024-01-07T10:59:45;99687.56;;;11.24;76.99
35129;BME280;21301;43.626;10.580;2024-01-07T11:02:17;99677.16;;;11.23;77.25
35129;BME280;21301;43.626;10.580;2024-01-07T11:05:03;99686.31;;;10.91;76.97
35129;BME280;21301;43.626;10.580;2024-01-07T11:10:46;99676.81;;;11.08;77.90
35129;BME280;21301;43.626;10.580;2024-01-07T11:13:35;99679.22;;;10.92;77.38
35129;BME280;21301;43.626;10.580;2024-01-07T11:16:02;99684.19;;;10.57;77.56
35129;BME280;21301;43.626;10.580;2024-01-07T11:18:28;99671.31;;;10.64;78.16
35129;BME280;21301;43.626;10.580;2024-01-07T11:21:02;99672.41;;;10.71;77.75
35129;BME280;21301;43.626;10.580;2024-01-07T11:23:36;99673.97;;;10.92;77.95
35129;BME280;21301;43.626;10.580;2024-01-07T11:26:04;99672.59;;;11.25;77.17
35129;BME280;21301;43.626;10.580;2024-01-07T11:28:43;99670.44;;;11.11;75.94
35129;BME280;21301;43.626;10.580;2024-01-07T11:31:10;99673.59;;;10.86;76.77
35129;BME280;21301;43.626;10.580;2024-01-07T11:33:37;99666.00;;;10.83;76.69
35129;BME280;21301;43.626;10.580;2024-01-07T11:36:06;99662.34;;;10.94;76.56
35129;BME280;21301;43.626;10.580;2024-01-07T11:38:34;99661.78;;;11.00;76.92
35129;BME280;21301;43.626;10.580;2024-01-07T11:41:04;99661.25;;;10.97;77.36
35129;BME280;21301;43.626;10.580;2024-01-07T11:43:31;99664.84;;;11.23;77.05
35129;BME280;21301;43.626;10.580;2024-01-07T11:45:57;99660.34;;;11.34;76.49
35129;BME280;21301;43.626;10.580;2024-01-07T11:48:23;99667.19;;;11.26;76.73
35129;BME280;21301;43.626;10.580;2024-01-07T11:50:49;99671.59;;;10.98;76.75
35129;BME280;21301;43.626;10.580;2024-01-07T11:53:16;99669.31;;;11.13;74.55
35129;BME280;21301;43.626;10.580;2024-01-07T11:55:42;99667.13;;;11.08;74.60
35129;BME280;21301;43.626;10.580;2024-01-07T11:58:07;99677.97;;;10.96;74.96
35129;BME280;21301;43.626;10.580;2024-01-07T12:00:34;99680.63;;;10.96;74.53
35129;BME280;21301;43.626;10.580;2024-01-07T12:03:03;99684.50;;;10.92;73.14
35129;BME280;21301;43.626;10.580;2024-01-07T12:05:30;99685.41;;;10.63;72.94
35129;BME280;21301;43.626;10.580;2024-01-07T12:08:00;99691.75;;;10.70;73.46
35129;BME280;21301;43.626;10.580;2024-01-07T12:10:26;99692.19;;;10.75;72.99
35129;BME280;21301;43.626;10.580;2024-01-07T12:12:52;99695.94;;;10.63;73.52
35129;BME280;21301;43.626;10.580;2024-01-07T12:15:21;99701.03;;;10.74;73.65
35129;BME280;21301;43.626;10.580;2024-01-07T12:18:06;99704.53;;;10.26;73.22
35129;BME280;21301;43.626;10.580;2024-01-07T12:20:34;99702.91;;;10.15;73.22
35129;BME280;21301;43.626;10.580;2024-01-07T12:23:09;99710.50;;;10.09;72.71
35129;BME280;21301;43.626;10.580;2024-01-07T12:25:36;99709.78;;;9.97;72.29
35129;BME280;21301;43.626;10.580;2024-01-07T12:28:05;99717.97;;;9.94;72.62
35129;BME280;21301;43.626;10.580;2024-01-07T12:30:40;99709.66;;;9.89;72.77
35129;BME280;21301;43.626;10.580;2024-01-07T12:33:09;99711.44;;;9.88;72.95
35129;BME280;21301;43.626;10.580;2024-01-07T12:35:38;99711.81;;;9.64;72.89
35129;BME280;21301;43.626;10.580;2024-01-07T12:38:13;99713.59;;;9.54;72.40
35129;BME280;21301;43.626;10.580;2024-01-07T12:40:44;99718.03;;;9.53;72.70
35129;BME280;21301;43.626;10.580;2024-01-07T12:43:10;99719.16;;;9.70;72.99
35129;BME280;21301;43.626;10.580;2024-01-07T12:45:36;99718.47;;;9.68;73.18
35129;BME280;21301;43.626;10.580;2024-01-07T12:48:02;99719.44;;;9.67;73.49
35129;BME280;21301;43.626;10.580;2024-01-07T12:50:28;99722.50;;;9.72;73.70
35129;BME280;21301;43.626;10.580;2024-01-07T12:52:56;99727.03;;;9.70;73.85
35129;BME280;21301;43.626;10.580;2024-01-07T12:55:26;99723.81;;;9.57;73.92